Time;durP1;ratioP1;P1;durP2;ratioP2;P2;SDS_P1;SDS_P2;PMS_P1;PMS_P2;Temp;Humidity;BMP_temperature;BMP_pressure;BME280_temperature;BME280_humidity;BME280_pressure;Samples;Min_cycle;Max_cycle;Signal;HPM_P1;HPM_P2
2023/12/07 00:00:07;;;;;;;19.63;8.65;;;2.70;99.90;;;;;;5017229;28;20052;-94
2023/12/07 00:02:33;;;;;;;21.38;8.15;;;2.70;99.90;;;;;;5018260;28;20090;-92
2023/12/07 00:04:58;;;;;;;20.27;8.43;;;2.80;99.90;;;;;;5020976;28;20053;-91
2023/12/07 00:07:24;;;;;;;20.33;8.50;;;2.80;99.90;;;;;;5025046;28;20555;-91
2023/12/07 00:09:50;;;;;;;22.73;8.15;;;2.80;99.90;;;;;;5024209;28;20474;-91
2023/12/07 00:12:15;;;;;;;22.38;8.73;;;2.80;99.90;;;;;;5015667;28;20103;-91
2023/12/07 00:14:41;;;;;;;23.25;8.20;;;2.80;99.90;;;;;;5016935;28;20151;-92
2023/12/07 00:17:07;;;;;;;16.38;7.85;;;2.80;99.90;;;;;;5016593;28;20121;-92
2023/12/07 00:19:33;;;;;;;17.17;8.27;;;2.80;99.90;;;;;;5016994;28;20025;-92
2023/12/07 00:21:58;;;;;;;22.40;8.10;;;2.80;99.90;;;;;;5016604;28;20543;-92
2023/12/07 00:24:24;;;;;;;20.88;8.07;;;2.80;99.90;;;;;;5016646;28;20029;-91
2023/12/07 00:26:50;;;;;;;24.60;8.20;;;2.90;99.90;;;;;;5016501;28;20474;-93
2023/12/07 00:29:16;;;;;;;21.92;8.70;;;2.90;99.90;;;;;;5017062;28;20032;-90
2023/12/07 00:31:41;;;;;;;22.38;7.80;;;2.90;99.90;;;;;;5017346;28;20041;-91
2023/12/07 00:34:09;;;;;;;17.48;8.82;;;2.90;99.90;;;;;;5016747;28;20430;-91
2023/12/07 00:36:35;;;;;;;16.83;8.38;;;2.90;99.90;;;;;;5016194;28;20087;-92
2023/12/07 00:39:01;;;;;;;23.48;8.27;;;2.90;99.90;;;;;;5034634;28;20490;-91
2023/12/07 00:41:26;;;;;;;20.38;9.23;;;2.90;99.90;;;;;;5016626;28;20021;-91
2023/12/07 00:43:52;;;;;;;17.90;7.55;;;3.00;99.90;;;;;;5017112;28;20021;-92
2023/12/07 00:46:18;;;;;;;18.98;8.05;;;3.00;99.90;;;;;;5016529;28;20398;-91
2023/12/07 00:48:43;;;;;;;21.35;8.48;;;3.00;99.90;;;;;;5016847;28;20025;-92
2023/12/07 00:51:09;;;;;;;20.48;7.70;;;3.00;99.90;;;;;;5017413;28;20060;-91
2023/12/07 00:53:35;;;;;;;15.18;7.78;;;3.00;99.90;;;;;;5017604;28;20018;-91
2023/12/07 00:56:03;;;;;;;16.88;7.53;;;3.00;99.90;;;;;;5018607;28;20025;-92
2023/12/07 00:58:29;;;;;;;17.50;8.25;;;3.00;99.90;;;;;;5026159;28;20021;-90
2023/12/07 01:00:55;;;;;;;18.38;8.45;;;3.00;99.90;;;;;;5039400;28;20041;-90
2023/12/07 01:03:21;;;;;;;17.05;8.43;;;3.10;99.90;;;;;;5027141;28;20052;-92
2023/12/07 01:05:46;;;;;;;19.58;8.13;;;3.10;99.90;;;;;;5021777;28;20045;-91
2023/12/07 01:08:12;;;;;;;21.88;7.95;;;3.00;99.90;;;;;;5021934;28;20029;-91
2023/12/07 01:10:38;;;;;;;18.88;8.68;;;3.10;99.90;;;;;;5017996;28;20022;-92
2023/12/07 01:13:03;;;;;;;19.95;8.40;;;3.10;99.90;;;;;;5017923;28;20049;-92
2023/12/07 01:15:29;;;;;;;19.38;8.43;;;3.10;99.90;;;;;;5017675;28;20395;-93
2023/12/07 01:17:55;;;;;;;19.70;8.90;;;3.10;99.90;;;;;;5017031;28;20097;-92
2023/12/07 01:20:20;;;;;;;18.10;8.38;;;3.10;99.90;;;;;;5016768;28;20116;-92
2023/12/07 01:22:46;;;;;;;27.27;9.40;;;3.10;99.90;;;;;;5016183;28;20018;-92
2023/12/07 01:25:16;;;;;;;21.40;9.00;;;3.20;99.90;;;;;;5016539;28;20056;-93
2023/12/07 01:27:42;;;;;;;19.33;9.05;;;3.20;99.90;;;;;;5015601;28;20132;-92
2023/12/07 01:30:08;;;;;;;23.02;9.05;;;3.20;99.90;;;;;;5016181;28;20036;-93
2023/12/07 01:32:34;;;;;;;25.40;9.48;;;3.20;99.90;;;;;;5015447;28;20046;-91
2023/12/07 01:34:59;;;;;;;18.02;9.65;;;3.20;99.90;;;;;;5017695;28;20453;-93
2023/12/07 01:37:27;;;;;;;21.55;8.73;;;3.20;99.90;;;;;;5016456;28;20060;-93
2023/12/07 01:39:53;;;;;;;18.50;9.45;;;3.20;99.90;;;;;;5015669;28;20072;-94
2023/12/07 01:42:18;;;;;;;28.98;9.18;;;3.20;99.90;;;;;;5015707;28;20340;-92
2023/12/07 01:44:44;;;;;;;27.85;10.55;;;3.20;99.90;;;;;;5015721;28;20045;-93
2023/12/07 01:47:10;;;;;;;22.35;9.57;;;3.20;99.90;;;;;;5016485;28;20026;-92
2023/12/07 01:49:37;;;;;;;23.45;9.80;;;3.20;99.90;;;;;;5016059;28;20049;-92
2023/12/07 01:52:03;;;;;;;25.55;11.10;;;3.20;99.90;;;;;;5015466;28;20482;-92
2023/12/07 01:54:29;;;;;;;21.95;9.65;;;3.20;99.90;;;;;;5015411;28;20030;-93
2023/12/07 01:56:56;;;;;;;22.20;9.82;;;3.30;99.90;;;;;;5015468;28;20041;-94
2023/12/07 01:59:22;;;;;;;19.98;8.48;;;3.20;99.90;;;;;;5015354;28;20113;-92
2023/12/07 02:01:47;;;;;;;22.52;9.60;;;3.20;99.90;;;;;;5015780;28;20060;-93
2023/12/07 02:04:13;;;;;;;21.98;9.52;;;3.20;99.90;;;;;;5015894;28;20064;-93
2023/12/07 02:06:39;;;;;;;22.58;10.32;;;3.30;99.90;;;;;;5016521;28;20036;-94
2023/12/07 02:09:05;;;;;;;21.85;10.20;;;3.30;99.90;;;;;;5016956;28;20022;-94
2023/12/07 02:11:31;;;;;;;17.48;8.95;;;3.30;99.90;;;;;;5022407;28;20041;-94
2023/12/07 02:13:57;;;;;;;22.35;10.18;;;3.30;99.90;;;;;;5019117;28;20028;-94
2023/12/07 02:16:45;;;;;;;21.48;10.27;;;3.30;99.90;;;;;;5016200;28;20022;-93
2023/12/07 02:19:39;;;;;;;24.27;10.45;;;3.30;99.90;;;;;;5021504;28;20029;-95
2023/12/07 02:22:25;;;;;;;17.05;7.78;;;3.30;99.90;;;;;;5048203;28;20041;-93
2023/12/07 02:25:01;;;;;;;21.02;9.15;;;3.40;99.90;;;;;;5029991;28;20021;-94
2023/12/07 02:27:45;;;;;;;28.30;9.70;;;3.40;99.90;;;;;;5031105;28;20044;-93
2023/12/07 02:30:12;;;;;;;19.65;10.30;;;3.40;99.90;;;;;;5019182;28;20026;-92
2023/12/07 02:32:39;;;;;;;19.15;9.55;;;3.40;99.90;;;;;;5018598;28;20033;-92
2023/12/07 02:35:07;;;;;;;21.98;9.50;;;3.40;99.90;;;;;;5017942;28;20454;-92
2023/12/07 02:37:41;;;;;;;18.20;8.75;;;3.50;99.90;;;;;;5021163;28;20026;-93
2023/12/07 02:40:11;;;;;;;20.45;9.25;;;3.50;99.90;;;;;;5024910;28;20029;-92
2023/12/07 02:42:41;;;;;;;22.00;9.35;;;3.50;99.90;;;;;;5040766;28;20033;-92
2023/12/07 02:45:08;;;;;;;29.95;10.38;;;3.50;99.90;;;;;;5020486;28;20128;-93
2023/12/07 02:47:35;;;;;;;21.15;9.40;;;3.50;99.90;;;;;;5017636;28;20031;-93
2023/12/07 02:50:00;;;;;;;24.70;10.63;;;3.50;99.90;;;;;;5019147;28;20053;-94
2023/12/07 02:52:26;;;;;;;25.30;9.95;;;3.50;99.90;;;;;;5035997;28;20052;-93
2023/12/07 02:54:52;;;;;;;17.33;8.30;;;3.50;99.90;;;;;;5018737;28;20109;-92
2023/12/07 02:57:17;;;;;;;21.42;8.52;;;3.50;99.90;;;;;;5018742;28;20032;-93
2023/12/07 02:59:43;;;;;;;22.40;9.68;;;3.50;99.90;;;;;;5019039;28;20474;-94
2023/12/07 03:02:08;;;;;;;20.83;10.38;;;3.50;99.90;;;;;;5018953;28;20558;-94
2023/12/07 03:04:34;;;;;;;24.02;10.07;;;3.50;99.90;;;;;;5018463;28;20097;-93
2023/12/07 03:07:00;;;;;;;18.15;9.63;;;3.60;99.90;;;;;;5019818;28;20025;-92
2023/12/07 03:09:26;;;;;;;19.30;9.02;;;3.60;99.90;;;;;;5021302;28;20021;-93
2023/12/07 03:11:51;;;;;;;20.98;9.07;;;3.60;99.90;;;;;;5018886;28;20053;-94
2023/12/07 03:14:17;;;;;;;19.52;9.45;;;3.60;99.90;;;;;;5018647;28;20032;-94
2023/12/07 03:16:42;;;;;;;26.83;10.55;;;3.60;99.90;;;;;;5018754;28;20057;-94
2023/12/07 03:19:08;;;;;;;21.75;9.90;;;3.60;99.90;;;;;;5019029;28;20143;-93
2023/12/07 03:21:38;;;;;;;22.40;9.13;;;3.60;99.90;;;;;;5018609;28;20029;-93
2023/12/07 03:24:04;;;;;;;25.15;10.57;;;3.60;99.90;;;;;;5018132;28;20017;-92
2023/12/07 03:26:30;;;;;;;30.13;11.98;;;3.60;99.90;;;;;;5018159;28;20487;-92
2023/12/07 03:28:55;;;;;;;23.10;10.00;;;3.60;99.90;;;;;;5018126;28;20041;-91
2023/12/07 03:31:21;;;;;;;19.33;9.75;;;3.60;99.90;;;;;;5017910;28;20033;-92
2023/12/07 03:33:46;;;;;;;26.33;10.18;;;3.60;99.90;;;;;;5018225;28;20034;-92
2023/12/07 03:36:12;;;;;;;21.63;9.05;;;3.60;99.90;;;;;;5017562;28;20037;-91
2023/12/07 03:38:38;;;;;;;22.73;9.88;;;3.60;99.90;;;;;;5018018;28;20364;-92
2023/12/07 03:41:04;;;;;;;24.52;10.50;;;3.60;99.90;;;;;;5019333;28;20036;-92
2023/12/07 03:43:29;;;;;;;17.13;8.82;;;3.60;99.90;;;;;;5020458;28;20022;-92
2023/12/07 03:45:55;;;;;;;30.33;10.18;;;3.60;99.90;;;;;;5037521;28;20040;-91
2023/12/07 03:48:21;;;;;;;17.95;8.13;;;3.60;99.90;;;;;;5044446;28;20025;-93
2023/12/07 03:50:46;;;;;;;22.73;9.50;;;3.60;99.90;;;;;;5017386;28;20056;-92
2023/12/07 03:53:12;;;;;;;18.50;10.43;;;3.60;99.90;;;;;;5017535;28;20041;-91
2023/12/07 03:55:38;;;;;;;21.52;9.85;;;3.60;99.90;;;;;;5016804;28;20025;-92
2023/12/07 03:58:04;;;;;;;20.00;8.50;;;3.60;99.90;;;;;;5016942;28;20064;-93
2023/12/07 04:00:33;;;;;;;23.85;10.48;;;3.70;99.90;;;;;;5020154;28;20129;-92
2023/12/07 04:02:59;;;;;;;24.27;10.75;;;3.60;99.90;;;;;;5017924;28;20441;-94
2023/12/07 04:05:25;;;;;;;24.65;8.77;;;3.70;99.90;;;;;;5017133;28;20025;-92
2023/12/07 04:07:50;;;;;;;25.83;10.43;;;3.70;99.90;;;;;;5017406;28;20025;-94
2023/12/07 04:10:16;;;;;;;17.40;7.40;;;3.70;99.90;;;;;;5017262;28;20112;-91
2023/12/07 04:12:42;;;;;;;20.02;9.50;;;3.70;99.90;;;;;;5017136;28;20057;-94
2023/12/07 04:15:08;;;;;;;22.00;8.52;;;3.70;99.90;;;;;;5017523;28;20068;-92
2023/12/07 04:17:33;;;;;;;22.65;8.77;;;3.70;99.90;;;;;;5021393;28;20033;-92
2023/12/07 04:19:59;;;;;;;23.25;8.73;;;3.70;99.90;;;;;;5024278;28;20028;-95
2023/12/07 04:22:25;;;;;;;18.15;8.40;;;3.70;99.90;;;;;;5027967;28;20021;-91
2023/12/07 04:24:50;;;;;;;15.57;6.55;;;3.70;99.90;;;;;;5038064;28;20506;-92
2023/12/07 04:27:16;;;;;;;21.05;8.63;;;3.70;99.90;;;;;;5030923;28;20034;-92
2023/12/07 04:29:42;;;;;;;15.40;8.13;;;3.70;99.90;;;;;;5033521;28;20040;-92
2023/12/07 04:32:08;;;;;;;20.45;8.07;;;3.70;99.90;;;;;;5035544;28;20072;-93
2023/12/07 04:34:34;;;;;;;20.85;9.07;;;3.70;99.90;;;;;;5034951;28;20049;-93
2023/12/07 04:36:59;;;;;;;16.13;7.72;;;3.70;99.90;;;;;;5033285;28;20013;-94
2023/12/07 04:39:25;;;;;;;20.77;7.95;;;3.70;99.90;;;;;;5030837;28;20053;-94
2023/12/07 04:41:51;;;;;;;23.70;8.32;;;3.70;99.90;;;;;;5030399;28;20025;-95
2023/12/07 04:44:17;;;;;;;18.92;8.40;;;3.70;99.90;;;;;;5026912;28;20044;-94
2023/12/07 04:46:43;;;;;;;19.70;8.48;;;3.70;99.90;;;;;;5024094;28;20025;-94
2023/12/07 04:49:09;;;;;;;23.40;8.93;;;3.70;99.90;;;;;;5021965;28;20030;-93
2023/12/07 04:51:34;;;;;;;21.98;9.15;;;3.70;99.90;;;;;;5022321;28;20060;-94
2023/12/07 04:54:00;;;;;;;16.25;8.65;;;3.70;99.90;;;;;;5022625;28;20032;-93
2023/12/07 04:56:26;;;;;;;17.40;9.38;;;3.70;99.90;;;;;;5022589;28;20033;-92
2023/12/07 04:58:52;;;;;;;22.50;9.32;;;3.70;99.90;;;;;;5023076;28;20022;-94
2023/12/07 05:01:18;;;;;;;13.23;7.88;;;3.70;99.90;;;;;;5025581;28;20033;-93
2023/12/07 05:03:45;;;;;;;22.45;9.75;;;3.70;99.90;;;;;;5026316;28;20547;-93
2023/12/07 05:06:11;;;;;;;19.48;9.05;;;3.70;99.90;;;;;;5035992;28;20021;-92
2023/12/07 05:08:38;;;;;;;22.10;8.15;;;3.70;99.90;;;;;;5039900;28;20018;-91
2023/12/07 05:11:04;;;;;;;18.17;9.63;;;3.70;99.90;;;;;;5021895;28;20034;-94
2023/12/07 05:13:30;;;;;;;15.00;7.68;;;3.70;99.90;;;;;;5021661;28;20052;-93
2023/12/07 05:15:57;;;;;;;16.42;9.38;;;3.70;99.90;;;;;;5022208;28;20470;-92
2023/12/07 05:18:22;;;;;;;20.90;9.57;;;3.70;99.90;;;;;;5019410;28;20029;-93
2023/12/07 05:20:48;;;;;;;21.88;8.82;;;3.60;99.90;;;;;;5018425;28;20085;-92
2023/12/07 05:23:14;;;;;;;17.35;8.27;;;3.70;99.90;;;;;;5025780;28;20040;-93
2023/12/07 05:25:39;;;;;;;21.00;9.77;;;3.70;99.90;;;;;;5027775;28;20029;-94
2023/12/07 05:28:05;;;;;;;19.58;10.32;;;3.70;99.90;;;;;;5023828;28;20033;-93
2023/12/07 05:30:31;;;;;;;25.75;10.25;;;3.70;99.90;;;;;;5023497;28;20028;-93
2023/12/07 05:32:57;;;;;;;17.45;10.45;;;3.70;99.90;;;;;;5021208;28;20128;-94
2023/12/07 05:35:23;;;;;;;16.75;9.13;;;3.70;99.90;;;;;;5019778;28;20033;-93
2023/12/07 05:37:49;;;;;;;22.08;9.80;;;3.70;99.90;;;;;;5020600;28;20026;-95
2023/12/07 05:40:15;;;;;;;19.45;9.63;;;3.70;99.90;;;;;;5021218;28;20047;-95
2023/12/07 05:42:41;;;;;;;23.55;10.10;;;3.70;99.90;;;;;;5018540;28;20036;-94
2023/12/07 05:45:09;;;;;;;20.77;9.32;;;3.60;99.90;;;;;;5018507;28;20030;-94
2023/12/07 05:47:36;;;;;;;19.38;10.18;;;3.70;99.90;;;;;;5020492;28;20017;-93
2023/12/07 05:50:03;;;;;;;23.75;10.63;;;3.70;99.90;;;;;;5019650;28;20079;-93
2023/12/07 05:52:29;;;;;;;24.52;10.15;;;3.70;99.90;;;;;;5021338;28;20069;-94
2023/12/07 05:54:55;;;;;;;20.95;9.70;;;3.60;99.90;;;;;;5023332;28;20065;-94
2023/12/07 05:57:20;;;;;;;17.50;9.57;;;3.70;99.90;;;;;;5024382;28;20026;-93
2023/12/07 05:59:46;;;;;;;19.20;10.52;;;3.70;99.90;;;;;;5025024;28;20474;-92
2023/12/07 06:02:12;;;;;;;21.90;10.45;;;3.70;99.90;;;;;;5025878;28;20057;-94
2023/12/07 06:04:38;;;;;;;19.30;9.88;;;3.70;99.90;;;;;;5027156;28;20040;-93
2023/12/07 06:07:03;;;;;;;19.27;10.07;;;3.70;99.90;;;;;;5035920;28;20060;-94
2023/12/07 06:09:29;;;;;;;20.00;10.40;;;3.70;99.90;;;;;;5020617;28;20052;-95
2023/12/07 06:11:55;;;;;;;18.92;9.07;;;3.60;99.90;;;;;;5021329;28;20076;-95
2023/12/07 06:14:22;;;;;;;17.95;9.02;;;3.70;99.90;;;;;;5020629;28;20021;-96
2023/12/07 06:16:48;;;;;;;17.92;8.38;;;3.70;99.90;;;;;;5019856;28;20029;-95
2023/12/07 06:19:14;;;;;;;14.95;8.48;;;3.70;99.90;;;;;;5019031;28;20033;-94
2023/12/07 06:21:40;;;;;;;16.15;8.00;;;3.70;99.90;;;;;;5019913;28;20057;-93
2023/12/07 06:24:06;;;;;;;18.40;8.43;;;3.70;99.90;;;;;;5023512;28;20029;-96
2023/12/07 06:26:32;;;;;;;14.40;9.25;;;3.70;99.90;;;;;;5021204;28;20021;-95
2023/12/07 06:28:58;;;;;;;17.08;8.00;;;3.70;99.90;;;;;;5020085;28;20018;-95
2023/12/07 06:31:24;;;;;;;18.08;9.25;;;3.70;99.90;;;;;;5019786;28;20112;-95
2023/12/07 06:33:50;;;;;;;14.68;8.80;;;3.70;99.90;;;;;;5020555;28;20149;-96
2023/12/07 06:36:23;;;;;;;17.17;9.02;;;3.70;99.90;;;;;;5021352;28;20057;-95
2023/12/07 06:38:49;;;;;;;17.85;7.70;;;3.70;99.90;;;;;;5019938;28;20025;-94
2023/12/07 06:41:16;;;;;;;15.80;8.70;;;3.70;99.90;;;;;;5024213;28;20029;-96
2023/12/07 06:43:43;;;;;;;15.68;9.35;;;3.70;99.90;;;;;;5029179;28;20032;-96
2023/12/07 06:46:11;;;;;;;17.60;7.68;;;3.70;99.90;;;;;;5027975;28;20116;-96
2023/12/07 06:48:42;;;;;;;13.80;7.95;;;3.70;99.90;;;;;;5025745;28;20499;-94
2023/12/07 06:51:08;;;;;;;14.80;7.38;;;3.80;99.90;;;;;;5028508;28;20132;-95
2023/12/07 06:53:34;;;;;;;16.63;8.15;;;3.80;99.90;;;;;;5024836;28;20057;-96
2023/12/07 06:55:59;;;;;;;13.27;7.35;;;3.80;99.90;;;;;;5026111;28;20026;-95
2023/12/07 06:58:25;;;;;;;18.73;8.80;;;3.80;99.90;;;;;;5027206;28;20043;-95
2023/12/07 07:00:52;;;;;;;13.60;7.40;;;3.80;99.90;;;;;;5026724;28;20036;-96
2023/12/07 07:03:19;;;;;;;12.55;8.00;;;3.80;99.90;;;;;;5043821;28;20037;-94
2023/12/07 07:05:45;;;;;;;13.68;7.70;;;3.90;99.90;;;;;;5029188;28;20025;-96
2023/12/07 07:08:10;;;;;;;12.32;7.85;;;3.90;99.90;;;;;;5030236;28;20061;-96
2023/12/07 07:10:36;;;;;;;14.45;7.60;;;3.90;99.90;;;;;;5027194;28;20026;-96
2023/12/07 07:13:06;;;;;;;13.63;7.75;;;3.90;99.90;;;;;;5028179;28;20021;-95
2023/12/07 07:15:34;;;;;;;11.93;7.28;;;3.90;99.90;;;;;;5031623;28;20026;-96
2023/12/07 07:18:01;;;;;;;12.88;8.23;;;3.90;99.90;;;;;;5028239;28;20063;-96
2023/12/07 07:20:28;;;;;;;16.30;7.53;;;3.90;99.90;;;;;;5030237;28;20025;-96
2023/12/07 07:22:56;;;;;;;16.55;7.20;;;4.00;99.90;;;;;;5034536;28;20033;-96
2023/12/07 07:25:22;;;;;;;16.42;7.55;;;4.00;99.90;;;;;;5028790;28;20040;-96
2023/12/07 07:27:55;;;;;;;15.43;7.28;;;4.00;99.90;;;;;;5022678;28;20101;-96
2023/12/07 07:30:21;;;;;;;12.30;7.00;;;4.00;99.90;;;;;;5031532;28;20025;-96
2023/12/07 07:32:59;;;;;;;15.55;6.57;;;4.00;99.90;;;;;;5023528;28;20037;-96
2023/12/07 07:35:27;;;;;;;10.57;6.30;;;4.10;99.90;;;;;;5020646;28;20022;-93
2023/12/07 07:37:55;;;;;;;13.55;7.10;;;4.10;99.90;;;;;;5020542;28;20029;-95
2023/12/07 07:40:21;;;;;;;14.57;6.45;;;4.10;99.90;;;;;;5022765;28;20032;-96
2023/12/07 07:42:50;;;;;;;13.90;7.03;;;4.20;99.90;;;;;;5022370;28;20029;-96
2023/12/07 07:45:16;;;;;;;13.27;6.50;;;4.10;99.90;;;;;;5028548;28;20021;-94
2023/12/07 07:47:42;;;;;;;15.00;6.72;;;4.20;99.90;;;;;;5037652;28;20051;-94
2023/12/07 07:50:10;;;;;;;12.50;7.05;;;4.20;99.90;;;;;;5040520;28;20064;-95
2023/12/07 07:52:36;;;;;;;13.88;6.50;;;4.20;99.90;;;;;;5034925;28;20132;-94
2023/12/07 07:55:04;;;;;;;11.77;6.50;;;4.20;99.90;;;;;;5050723;28;20022;-94
2023/12/07 07:57:30;;;;;;;15.95;6.70;;;4.20;99.90;;;;;;5031819;28;20034;-94
2023/12/07 07:59:57;;;;;;;13.05;6.80;;;4.30;99.90;;;;;;5027433;28;20029;-93
2023/12/07 08:02:23;;;;;;;13.52;6.80;;;4.30;99.90;;;;;;5026123;28;20029;-96
2023/12/07 08:04:49;;;;;;;12.57;6.85;;;4.30;99.90;;;;;;5019920;28;20025;-96
2023/12/07 08:07:15;;;;;;;10.00;6.57;;;4.30;99.90;;;;;;5019593;28;20028;-95
2023/12/07 08:09:41;;;;;;;12.70;6.00;;;4.30;99.90;;;;;;5018637;28;20093;-95
2023/12/07 08:12:08;;;;;;;15.70;6.20;;;4.30;99.90;;;;;;5023661;28;20038;-94
2023/12/07 08:14:35;;;;;;;8.65;5.50;;;4.30;99.90;;;;;;5024152;28;20036;-96
2023/12/07 08:17:02;;;;;;;11.55;6.72;;;4.30;99.90;;;;;;5019306;28;20117;-96
2023/12/07 08:19:28;;;;;;;13.32;6.18;;;4.40;99.90;;;;;;5040375;28;20030;-95
2023/12/07 08:21:54;;;;;;;9.65;5.25;;;4.40;99.90;;;;;;5022412;28;20386;-96
2023/12/07 08:24:20;;;;;;;10.80;5.75;;;4.50;99.90;;;;;;5037153;28;20029;-95
2023/12/07 08:26:45;;;;;;;9.00;5.43;;;4.50;99.90;;;;;;5039301;28;20092;-93
2023/12/07 08:29:12;;;;;;;10.10;5.38;;;4.50;99.90;;;;;;5039245;28;20098;-94
2023/12/07 08:31:40;;;;;;;7.63;5.28;;;4.60;99.90;;;;;;5033935;28;20042;-95
2023/12/07 08:34:06;;;;;;;6.88;4.07;;;4.60;99.90;;;;;;5028775;28;20047;-95
2023/12/07 08:36:31;;;;;;;8.60;4.13;;;4.60;99.90;;;;;;5025240;28;20017;-96
2023/12/07 08:38:57;;;;;;;8.63;5.05;;;4.60;99.90;;;;;;5017981;28;20030;-95
2023/12/07 08:41:23;;;;;;;9.13;4.20;;;4.60;99.90;;;;;;5014594;28;20470;-95
2023/12/07 08:43:49;;;;;;;6.43;4.28;;;4.60;99.90;;;;;;5027850;28;20441;-96
2023/12/07 08:46:14;;;;;;;7.47;4.72;;;4.60;99.90;;;;;;5027702;28;20091;-96
2023/12/07 08:48:40;;;;;;;7.07;4.35;;;4.60;99.90;;;;;;5027526;28;20097;-95
2023/12/07 08:51:08;;;;;;;9.68;4.32;;;4.60;99.90;;;;;;5027595;28;20049;-94
2023/12/07 08:53:35;;;;;;;7.57;4.00;;;4.60;99.90;;;;;;5025040;28;20030;-95
2023/12/07 08:56:01;;;;;;;7.65;4.45;;;4.70;99.90;;;;;;5021761;28;20018;-95
2023/12/07 08:58:27;;;;;;;7.95;5.10;;;4.70;99.90;;;;;;5022482;28;20087;-96
2023/12/07 09:00:53;;;;;;;6.35;3.45;;;4.70;99.90;;;;;;5020950;28;20136;-95
2023/12/07 09:03:19;;;;;;;6.75;4.45;;;4.70;99.90;;;;;;5018618;28;20057;-96
2023/12/07 09:05:44;;;;;;;7.60;4.75;;;4.70;99.90;;;;;;5023498;28;20056;-96
2023/12/07 09:08:10;;;;;;;8.70;4.65;;;4.70;99.90;;;;;;5022520;28;20035;-94
2023/12/07 09:10:36;;;;;;;4.47;3.72;;;4.70;99.90;;;;;;5023402;28;20028;-95
2023/12/07 09:13:02;;;;;;;7.97;4.80;;;4.70;99.90;;;;;;5019912;28;20045;-96
2023/12/07 09:15:27;;;;;;;5.82;4.13;;;4.70;99.90;;;;;;5021939;28;20032;-95
2023/12/07 09:17:58;;;;;;;5.18;3.03;;;4.70;99.90;;;;;;5019340;28;20110;-96
2023/12/07 09:20:24;;;;;;;5.43;3.53;;;4.70;99.90;;;;;;5019140;28;20013;-96
2023/12/07 09:22:50;;;;;;;6.40;3.92;;;4.80;99.90;;;;;;5019746;28;20026;-96
2023/12/07 09:25:17;;;;;;;5.35;3.22;;;4.80;99.90;;;;;;5018866;28;20030;-95
2023/12/07 09:27:43;;;;;;;8.30;4.07;;;4.80;99.90;;;;;;5019422;28;20029;-96
2023/12/07 09:30:12;;;;;;;5.32;4.13;;;4.80;99.90;;;;;;5020603;28;20063;-95
2023/12/07 09:32:40;;;;;;;7.10;4.60;;;4.80;99.90;;;;;;5034039;28;20064;-92
2023/12/07 09:35:07;;;;;;;6.55;3.92;;;4.80;99.90;;;;;;5031535;28;20288;-94
2023/12/07 09:37:34;;;;;;;4.57;3.60;;;4.90;99.90;;;;;;5023222;28;20037;-95
2023/12/07 09:40:00;;;;;;;5.22;3.97;;;4.90;99.90;;;;;;5036262;28;20026;-94
2023/12/07 09:42:27;;;;;;;7.30;4.22;;;4.90;99.90;;;;;;5018476;28;20044;-94
2023/12/07 09:44:53;;;;;;;5.97;4.38;;;4.90;99.90;;;;;;5020215;28;20022;-95
2023/12/07 09:47:19;;;;;;;5.63;4.15;;;4.90;99.90;;;;;;5021756;28;20033;-96
2023/12/07 09:49:46;;;;;;;5.47;3.90;;;4.90;99.90;;;;;;5021562;28;20109;-94
2023/12/07 09:52:11;;;;;;;8.35;4.00;;;4.90;99.90;;;;;;5020167;28;20340;-94
2023/12/07 09:54:42;;;;;;;6.43;4.18;;;4.90;99.90;;;;;;5027390;28;20028;-94
2023/12/07 09:57:09;;;;;;;5.07;3.90;;;4.90;99.90;;;;;;5028148;28;20068;-94
2023/12/07 09:59:36;;;;;;;7.10;4.72;;;4.90;99.90;;;;;;5021044;28;20033;-95
2023/12/07 10:02:02;;;;;;;7.18;4.43;;;4.90;99.90;;;;;;5019096;28;20029;-94
2023/12/07 10:04:27;;;;;;;6.88;4.40;;;5.00;99.90;;;;;;5018607;28;20025;-96
2023/12/07 10:06:54;;;;;;;6.72;4.22;;;5.00;99.90;;;;;;5021347;28;20049;-93
2023/12/07 10:09:21;;;;;;;8.73;4.32;;;5.00;99.90;;;;;;5022179;28;20112;-96
2023/12/07 10:11:47;;;;;;;6.47;4.32;;;5.00;99.90;;;;;;5022441;28;20048;-96
2023/12/07 10:14:13;;;;;;;7.38;4.78;;;5.00;99.90;;;;;;5020411;28;20030;-96
2023/12/07 10:16:54;;;;;;;7.45;4.78;;;5.00;99.90;;;;;;5020580;28;20022;-95
2023/12/07 10:19:21;;;;;;;8.80;5.45;;;5.00;99.90;;;;;;5020682;28;20018;-95
2023/12/07 10:21:51;;;;;;;8.45;5.35;;;5.00;99.90;;;;;;5022000;28;20029;-96
2023/12/07 10:24:23;;;;;;;7.50;4.60;;;5.00;99.90;;;;;;5028235;28;20037;-94
2023/12/07 10:26:56;;;;;;;9.27;4.95;;;5.00;99.90;;;;;;5042297;28;20037;-92
2023/12/07 10:29:23;;;;;;;6.47;4.53;;;5.00;99.90;;;;;;5028669;28;20021;-95
2023/12/07 10:31:49;;;;;;;7.63;4.47;;;5.10;99.90;;;;;;5024941;28;20045;-94
2023/12/07 10:34:19;;;;;;;5.57;4.28;;;5.00;99.90;;;;;;5023344;28;20029;-95
2023/12/07 10:36:47;;;;;;;7.25;3.67;;;5.10;99.90;;;;;;5019650;28;20029;-96
2023/12/07 10:39:13;;;;;;;7.72;4.85;;;5.10;99.90;;;;;;5022990;28;20032;-95
2023/12/07 10:41:43;;;;;;;8.10;4.50;;;5.10;99.90;;;;;;5023731;28;20025;-96
2023/12/07 10:44:13;;;;;;;6.05;4.00;;;5.10;99.90;;;;;;5028531;28;20033;-95
2023/12/07 10:46:42;;;;;;;6.57;4.13;;;5.10;99.90;;;;;;5027442;28;20022;-94
2023/12/07 10:49:10;;;;;;;8.05;4.47;;;5.10;99.90;;;;;;5029417;28;20120;-92
2023/12/07 10:52:00;;;;;;;5.78;3.63;;;5.10;99.90;;;;;;5031805;28;20065;-95
2023/12/07 10:54:33;;;;;;;6.40;4.32;;;5.10;99.90;;;;;;5014781;28;20026;-95
2023/12/07 10:57:24;;;;;;;6.43;3.75;;;5.10;99.90;;;;;;5030825;28;20022;-94
2023/12/07 10:59:53;;;;;;;6.93;4.72;;;5.10;99.90;;;;;;5035385;28;20028;-95
2023/12/07 11:02:21;;;;;;;10.63;5.95;;;5.10;99.90;;;;;;5039667;28;20040;-96
2023/12/07 11:04:47;;;;;;;5.80;3.88;;;5.20;99.90;;;;;;5035912;28;20030;-95
2023/12/07 11:07:19;;;;;;;7.68;5.38;;;5.10;99.90;;;;;;5035440;28;20093;-95
2023/12/07 11:09:51;;;;;;;8.48;4.50;;;5.20;99.90;;;;;;5027373;28;20040;-96
2023/12/07 11:12:35;;;;;;;7.10;5.00;;;5.20;99.90;;;;;;5036146;28;20049;-94
2023/12/07 11:15:02;;;;;;;5.32;4.30;;;5.20;99.90;;;;;;5041179;28;20009;-89
2023/12/07 11:17:27;;;;;;;6.00;3.58;;;5.30;99.90;;;;;;5023983;28;20089;-94
2023/12/07 11:19:54;;;;;;;5.65;4.05;;;5.30;99.90;;;;;;5021722;28;20057;-94
2023/12/07 11:22:23;;;;;;;5.35;3.35;;;5.30;99.90;;;;;;5020199;28;20030;-94
2023/12/07 11:24:54;;;;;;;9.30;4.10;;;5.30;99.90;;;;;;5018518;28;20026;-93
2023/12/07 11:27:21;;;;;;;7.32;4.18;;;5.40;99.90;;;;;;5031916;28;20311;-96
2023/12/07 11:29:49;;;;;;;5.97;4.05;;;5.40;99.90;;;;;;5022112;28;20036;-96
2023/12/07 11:32:17;;;;;;;6.03;3.78;;;5.40;99.90;;;;;;5026786;28;20048;-95
2023/12/07 11:34:44;;;;;;;6.85;4.20;;;5.40;99.90;;;;;;5036637;28;20029;-93
2023/12/07 11:37:14;;;;;;;7.68;4.18;;;5.40;99.90;;;;;;5039593;28;20089;-92
2023/12/07 11:39:41;;;;;;;3.17;2.55;;;5.40;99.90;;;;;;5051554;28;20026;-92
2023/12/07 11:42:15;;;;;;;4.72;3.80;;;5.50;99.90;;;;;;5037970;28;20089;-91
2023/12/07 11:44:49;;;;;;;4.80;3.38;;;5.50;99.90;;;;;;5024202;28;20041;-94
2023/12/07 11:47:20;;;;;;;4.22;3.25;;;5.50;99.90;;;;;;5022888;28;20025;-96
2023/12/07 11:49:46;;;;;;;5.25;3.47;;;5.50;99.90;;;;;;5029298;28;20099;-94
2023/12/07 11:52:20;;;;;;;5.05;3.45;;;5.50;99.90;;;;;;5032474;28;20087;-93
2023/12/07 11:54:51;;;;;;;5.20;2.85;;;5.50;99.90;;;;;;5028941;28;20038;-95
2023/12/07 11:57:17;;;;;;;4.50;3.13;;;5.50;99.90;;;;;;5029034;28;20065;-94
2023/12/07 11:59:49;;;;;;;6.68;3.20;;;5.50;99.90;;;;;;5027695;28;20021;-95
2023/12/07 12:02:15;;;;;;;3.80;2.60;;;5.50;99.90;;;;;;5023023;28;20119;-96
2023/12/07 12:04:41;;;;;;;6.47;3.03;;;5.60;99.90;;;;;;5022102;28;20026;-94
2023/12/07 12:07:08;;;;;;;5.35;3.60;;;5.60;99.90;;;;;;5029847;28;20093;-94
2023/12/07 12:09:35;;;;;;;5.38;3.55;;;5.60;99.90;;;;;;5036210;28;20106;-94
2023/12/07 12:12:03;;;;;;;4.82;3.00;;;5.60;99.90;;;;;;5040547;28;20051;-92
2023/12/07 12:14:29;;;;;;;7.13;4.05;;;5.60;99.90;;;;;;5037052;28;20014;-91
2023/12/07 12:16:56;;;;;;;9.70;4.05;;;5.60;99.90;;;;;;5040819;28;20100;-92
2023/12/07 12:19:24;;;;;;;12.52;5.57;;;5.60;99.90;;;;;;5039812;28;20025;-91
2023/12/07 12:21:49;;;;;;;11.23;6.28;;;5.60;99.90;;;;;;5021080;28;20097;-92
2023/12/07 12:24:15;;;;;;;13.90;6.07;;;5.60;99.90;;;;;;5037958;28;20029;-95
2023/12/07 12:26:42;;;;;;;16.20;7.03;;;5.60;99.90;;;;;;5030971;28;20056;-93
2023/12/07 12:29:14;;;;;;;15.95;6.78;;;5.60;99.90;;;;;;5029714;28;20036;-95
2023/12/07 12:31:40;;;;;;;17.67;8.02;;;5.60;99.90;;;;;;5027374;28;20490;-95
2023/12/07 12:34:11;;;;;;;15.45;7.57;;;5.60;99.90;;;;;;5033827;28;20065;-95
2023/12/07 12:36:44;;;;;;;18.33;8.23;;;5.60;99.90;;;;;;5029352;28;20092;-93
2023/12/07 12:39:13;;;;;;;19.48;7.70;;;5.60;99.90;;;;;;5037824;28;20025;-95
2023/12/07 12:41:39;;;;;;;18.05;8.18;;;5.60;99.90;;;;;;5039128;28;20048;-92
2023/12/07 12:44:05;;;;;;;15.10;7.93;;;5.60;99.90;;;;;;5040335;28;20013;-92
2023/12/07 12:46:34;;;;;;;15.13;7.68;;;5.60;99.90;;;;;;5057257;28;20044;-92